Terminal Aerodrome Forecast
Issued by NWS

Current Version | Previous Version | Text Only | Print | Product List | Glossary On
Versions: 1 2 3 4 5 6 7 8 9 10 11 12 13 14
000
FTUS45 KTFX 271720
TAFLWT
TAF
KLWT 271720Z 2718/2818 30015G20KT P6SM BKN070
      TEMPO 2800/2803 -SHRA BKN060
     FM280300 27009KT P6SM BKN070=

USA.gov is the U.S. government's official web portal to all federal, state and local government web resources and services.